createdAt,value
2018-04-19T00:00:58.356Z,7.92
2018-04-19T00:01:58.230Z,7.89
2018-04-19T00:02:58.104Z,7.89
2018-04-19T00:03:57.975Z,7.82
2018-04-19T00:04:57.853Z,7.89
2018-04-19T00:05:57.725Z,7.85
2018-04-19T00:06:57.599Z,7.87
2018-04-19T00:07:57.475Z,7.89
2018-04-19T00:08:57.349Z,7.92
2018-04-19T00:09:57.220Z,7.92
2018-04-19T00:10:57.097Z,8.00
2018-04-19T00:11:56.970Z,7.94
2018-04-19T00:12:56.841Z,7.99
2018-04-19T00:13:56.717Z,7.94
2018-04-19T00:14:56.590Z,7.93
2018-04-19T00:15:56.464Z,7.94
2018-04-19T00:16:56.340Z,7.96
2018-04-19T00:17:56.211Z,8.04
2018-04-19T00:18:56.088Z,7.96
2018-04-19T00:19:55.960Z,7.96
2018-04-19T00:20:55.833Z,8.03
2018-04-19T00:21:55.708Z,7.99
2018-04-19T00:22:55.585Z,8.02
2018-04-19T00:23:55.455Z,8.02
2018-04-19T00:24:55.329Z,7.93
2018-04-19T00:25:55.205Z,8.02
2018-04-19T00:26:55.079Z,8.12
2018-04-19T00:27:54.951Z,8.18
2018-04-19T00:28:54.827Z,8.04
2018-04-19T00:29:54.703Z,7.92
2018-04-19T00:30:54.580Z,7.89
2018-04-19T00:31:54.453Z,8.00
2018-04-19T00:32:54.322Z,7.94
2018-04-19T00:33:54.196Z,7.96
2018-04-19T00:34:54.070Z,7.93
2018-04-19T00:35:53.945Z,7.89
2018-04-19T00:36:53.824Z,7.89
2018-04-19T00:37:53.693Z,7.87
2018-04-19T00:38:53.565Z,7.94
2018-04-19T00:39:53.440Z,7.84
2018-04-19T00:40:53.317Z,7.82
2018-04-19T00:41:53.187Z,7.93
2018-04-19T00:42:53.061Z,7.94
2018-04-19T00:43:52.937Z,8.03
2018-04-19T00:44:52.812Z,8.02
2018-04-19T00:45:52.684Z,7.92
2018-04-19T00:46:52.559Z,7.94
2018-04-19T00:47:52.432Z,7.87
2018-04-19T00:48:52.304Z,7.92
2018-04-19T00:49:52.181Z,7.87
2018-04-19T00:50:52.052Z,7.81
2018-04-19T00:51:51.925Z,7.63
2018-04-19T00:52:51.801Z,7.63
2018-04-19T00:53:51.673Z,7.74
2018-04-19T00:54:51.547Z,7.77
2018-04-19T00:55:51.421Z,7.93
2018-04-19T00:56:51.295Z,7.87
2018-04-19T00:57:51.171Z,7.85
2018-04-19T00:58:51.044Z,7.97
2018-04-19T00:59:50.916Z,8.00
2018-04-19T01:00:50.790Z,7.93
2018-04-19T01:01:50.664Z,7.81
2018-04-19T01:02:50.539Z,7.82
2018-04-19T01:03:50.415Z,7.72
2018-04-19T01:04:50.284Z,7.75
2018-04-19T01:05:50.159Z,7.78
2018-04-19T01:06:50.035Z,7.69
2018-04-19T01:07:49.906Z,7.71
2018-04-19T01:08:49.781Z,7.63
2018-04-19T01:09:49.658Z,7.63
2018-04-19T01:10:49.530Z,7.67
2018-04-19T01:11:49.407Z,7.71
2018-04-19T01:12:49.276Z,7.67
2018-04-19T01:13:49.151Z,7.66
2018-04-19T01:14:49.024Z,7.60
2018-04-19T01:15:48.899Z,7.69
2018-04-19T01:16:48.771Z,7.71
2018-04-19T01:17:48.645Z,7.84
2018-04-19T01:18:48.527Z,7.82
2018-04-19T01:19:48.390Z,7.82
2018-04-19T01:20:48.266Z,7.79
2018-04-19T01:21:48.143Z,7.85
2018-04-19T01:22:48.061Z,7.85
2018-04-19T01:23:47.887Z,7.79
2018-04-19T01:24:47.761Z,7.82
2018-04-19T01:25:47.634Z,7.81
2018-04-19T01:26:47.508Z,7.78
2018-04-19T01:27:47.380Z,7.87
2018-04-19T01:28:47.255Z,7.78
2018-04-19T01:29:47.132Z,7.78
2018-04-19T01:30:47.003Z,7.90
2018-04-19T01:31:46.876Z,7.85
2018-04-19T01:32:46.749Z,7.82
2018-04-19T01:33:46.623Z,7.79
2018-04-19T01:34:46.499Z,7.93
2018-04-19T01:35:46.374Z,7.89
2018-04-19T01:36:46.243Z,7.84
2018-04-19T01:37:46.118Z,7.82
2018-04-19T01:38:45.992Z,7.78
2018-04-19T01:39:45.867Z,7.81
2018-04-19T01:40:45.740Z,7.81
2018-04-19T01:41:45.615Z,7.67
2018-04-19T01:42:45.494Z,7.63
2018-04-19T01:43:45.365Z,7.69
2018-04-19T01:44:45.235Z,7.72
2018-04-19T01:45:45.110Z,7.71
2018-04-19T01:46:44.983Z,7.69
2018-04-19T01:47:44.856Z,7.67
2018-04-19T01:48:44.730Z,7.66
2018-04-19T01:49:44.603Z,7.66
2018-04-19T01:50:44.476Z,7.69
2018-04-19T01:51:44.353Z,7.84
2018-04-19T01:52:44.224Z,7.78
2018-04-19T01:53:44.099Z,7.81
2018-04-19T01:54:43.973Z,7.77
2018-04-19T01:55:43.845Z,7.71
2018-04-19T01:56:43.720Z,7.62
2018-04-19T01:57:43.590Z,7.67
2018-04-19T01:58:43.466Z,7.67
2018-04-19T01:59:43.340Z,7.71
2018-04-19T02:00:43.214Z,7.67
2018-04-19T02:01:43.088Z,7.69
2018-04-19T02:02:42.963Z,7.67
2018-04-19T02:03:42.835Z,7.58
2018-04-19T02:04:42.707Z,7.63
2018-04-19T02:05:42.585Z,7.71
2018-04-19T02:06:42.456Z,7.63
2018-04-19T02:07:42.327Z,7.63
2018-04-19T02:08:42.203Z,7.69
2018-04-19T02:09:42.078Z,7.56
2018-04-19T02:10:41.951Z,7.45
2018-04-19T02:11:41.825Z,7.58
2018-04-19T02:12:41.698Z,7.49
2018-04-19T02:13:41.574Z,7.55
2018-04-19T02:14:41.443Z,7.58
2018-04-19T02:15:41.318Z,7.58
2018-04-19T02:16:41.192Z,7.56
2018-04-19T02:17:41.063Z,7.56
2018-04-19T02:18:40.941Z,7.60
2018-04-19T02:19:40.813Z,7.58
2018-04-19T02:20:40.686Z,7.56
2018-04-19T02:21:40.561Z,7.72
2018-04-19T02:22:40.434Z,7.62
2018-04-19T02:23:40.310Z,7.62
2018-04-19T02:24:40.179Z,7.62
2018-04-19T02:25:40.055Z,7.67
2018-04-19T02:26:39.935Z,7.67
2018-04-19T02:27:39.801Z,7.67
2018-04-19T02:28:39.674Z,7.63
2018-04-19T02:29:39.549Z,7.67
2018-04-19T02:30:39.427Z,7.63
2018-04-19T02:31:39.300Z,7.53
2018-04-19T02:32:39.167Z,7.60
2018-04-19T02:33:39.046Z,7.60
2018-04-19T02:34:38.916Z,7.58
2018-04-19T02:35:38.829Z,7.60
2018-04-19T02:36:38.664Z,7.59
2018-04-19T02:37:38.537Z,7.58
2018-04-19T02:38:38.411Z,7.60
2018-04-19T02:39:38.285Z,7.59
2018-04-19T02:40:38.157Z,7.55
2018-04-19T02:41:38.031Z,7.50
2018-04-19T02:42:37.905Z,7.50
2018-04-19T02:43:37.780Z,7.42
2018-04-19T02:44:37.655Z,7.49
2018-04-19T02:45:37.532Z,7.50
2018-04-19T02:46:37.398Z,7.42
2018-04-19T02:47:37.275Z,7.47
2018-04-19T02:48:37.147Z,7.41
2018-04-19T02:49:37.020Z,7.50
2018-04-19T02:50:36.928Z,7.49
2018-04-19T02:51:36.771Z,7.49
2018-04-19T02:52:36.641Z,7.52
2018-04-19T02:53:36.514Z,7.49
2018-04-19T02:54:36.390Z,7.35
2018-04-19T02:55:36.260Z,7.44
2018-04-19T02:56:36.134Z,7.35
2018-04-19T02:57:36.012Z,7.42
2018-04-19T02:58:35.883Z,7.41
2018-04-19T02:59:35.753Z,7.40
2018-04-19T03:00:35.632Z,7.37
2018-04-19T03:01:35.504Z,7.44
2018-04-19T03:02:35.379Z,7.41
2018-04-19T03:03:35.247Z,7.35
2018-04-19T03:04:35.122Z,7.29
2018-04-19T03:05:34.996Z,7.32
2018-04-19T03:06:34.870Z,7.37
2018-04-19T03:07:34.744Z,7.42
2018-04-19T03:08:34.616Z,7.47
2018-04-19T03:09:34.494Z,7.42
2018-04-19T03:10:34.365Z,7.38
2018-04-19T03:11:34.237Z,7.32
2018-04-19T03:12:34.117Z,7.34
2018-04-19T03:13:33.983Z,7.29
2018-04-19T03:14:33.857Z,7.37
2018-04-19T03:15:33.737Z,7.34
2018-04-19T03:16:33.603Z,7.42
2018-04-19T03:17:33.477Z,7.35
2018-04-19T03:18:33.350Z,7.37
2018-04-19T03:19:33.222Z,7.40
2018-04-19T03:20:33.097Z,7.40
2018-04-19T03:21:32.970Z,7.38
2018-04-19T03:22:32.842Z,7.34
2018-04-19T03:23:32.718Z,7.31
2018-04-19T03:24:32.592Z,7.42
2018-04-19T03:25:32.463Z,7.35
2018-04-19T03:26:32.338Z,7.35
2018-04-19T03:27:32.214Z,7.29
2018-04-19T03:28:32.084Z,7.17
2018-04-19T03:29:31.959Z,7.20
2018-04-19T03:30:31.837Z,7.23
2018-04-19T03:31:31.703Z,7.23
2018-04-19T03:32:31.605Z,7.17
2018-04-19T03:33:31.450Z,7.24
2018-04-19T03:34:31.326Z,7.34
2018-04-19T03:35:31.207Z,7.27
2018-04-19T03:36:31.071Z,7.37
2018-04-19T03:37:30.945Z,7.32
2018-04-19T03:38:30.821Z,7.32
2018-04-19T03:39:30.692Z,7.26
2018-04-19T03:40:30.568Z,7.29
2018-04-19T03:41:30.438Z,7.31
2018-04-19T03:42:30.312Z,7.27
2018-04-19T03:43:30.184Z,7.35
2018-04-19T03:44:30.060Z,7.34
2018-04-19T03:45:29.931Z,7.40
2018-04-19T03:46:29.806Z,7.27
2018-04-19T03:47:29.691Z,7.22
2018-04-19T03:48:29.559Z,7.19
2018-04-19T03:49:29.427Z,7.23
2018-04-19T03:50:29.299Z,7.23
2018-04-19T03:51:29.171Z,7.22
2018-04-19T03:52:29.043Z,7.19
2018-04-19T03:53:28.920Z,7.12
2018-04-19T03:54:28.794Z,7.05
2018-04-19T03:55:28.665Z,7.16
2018-04-19T03:56:28.539Z,7.23
2018-04-19T03:57:28.413Z,7.19
2018-04-19T03:58:28.285Z,7.27
2018-04-19T03:59:28.156Z,7.12
2018-04-19T04:00:28.031Z,7.16
2018-04-19T04:01:27.906Z,7.12
2018-04-19T04:02:27.781Z,7.16
2018-04-19T04:03:27.653Z,7.15
2018-04-19T04:04:27.524Z,7.08
2018-04-19T04:05:27.399Z,7.15
2018-04-19T04:06:27.272Z,7.20
2018-04-19T04:07:27.147Z,7.13
2018-04-19T04:08:27.019Z,7.13
2018-04-19T04:09:26.893Z,7.05
2018-04-19T04:10:26.764Z,7.12
2018-04-19T04:11:26.640Z,7.15
2018-04-19T04:12:26.510Z,7.09
2018-04-19T04:13:26.384Z,7.24
2018-04-19T04:14:26.264Z,7.34
2018-04-19T04:15:26.133Z,7.22
2018-04-19T04:16:26.036Z,7.29
2018-04-19T04:17:25.881Z,7.24
2018-04-19T04:18:25.753Z,7.32
2018-04-19T04:19:25.623Z,7.20
2018-04-19T04:20:25.500Z,7.31
2018-04-19T04:21:25.373Z,7.23
2018-04-19T04:22:25.245Z,7.26
2018-04-19T04:23:25.118Z,7.27
2018-04-19T04:24:24.990Z,7.29
2018-04-19T04:25:24.865Z,7.32
2018-04-19T04:26:24.816Z,7.23
2018-04-19T04:27:24.622Z,7.24
2018-04-19T04:28:24.489Z,7.31
2018-04-19T04:29:24.395Z,7.20
2018-04-19T04:30:24.240Z,7.22
2018-04-19T04:31:24.102Z,7.27
2018-04-19T04:32:23.979Z,7.24
2018-04-19T04:33:23.851Z,7.19
2018-04-19T04:34:23.803Z,7.23
2018-04-19T04:35:23.596Z,7.34
2018-04-19T04:36:23.486Z,7.35
2018-04-19T04:37:23.425Z,7.24
2018-04-19T04:38:23.218Z,7.35
2018-04-19T04:39:23.088Z,7.22
2018-04-19T04:40:23.147Z,7.20
2018-04-19T04:41:22.836Z,7.19
2018-04-19T04:42:22.711Z,7.20
2018-04-19T04:43:22.584Z,7.23
2018-04-19T04:44:23.458Z,7.24
2018-04-19T04:45:23.268Z,7.32
2018-04-19T04:46:22.209Z,7.35
2018-04-19T04:47:22.078Z,7.35
2018-04-19T04:48:21.953Z,7.35
2018-04-19T04:49:22.935Z,7.32
2018-04-19T04:50:21.696Z,7.29
2018-04-19T04:51:21.572Z,7.32
2018-04-19T04:52:21.491Z,7.38
2018-04-19T04:53:21.783Z,7.31
2018-04-19T04:54:21.195Z,7.42
2018-04-19T04:55:21.066Z,7.31
2018-04-19T04:56:20.937Z,7.35
2018-04-19T04:57:20.813Z,7.32
2018-04-19T04:58:20.683Z,7.34
2018-04-19T04:59:20.557Z,7.31
2018-04-19T05:00:20.428Z,7.50
2018-04-19T05:01:20.303Z,7.47
2018-04-19T05:02:20.176Z,7.47
2018-04-19T05:03:20.057Z,7.52
2018-04-19T05:04:19.923Z,7.47
2018-04-19T05:05:19.796Z,7.40
2018-04-19T05:06:19.670Z,7.47
2018-04-19T05:07:19.547Z,7.55
2018-04-19T05:08:19.416Z,7.49
2018-04-19T05:09:19.290Z,7.50
2018-04-19T05:10:19.163Z,7.50
2018-04-19T05:11:19.037Z,7.50
2018-04-19T05:12:18.911Z,7.50
2018-04-19T05:13:18.782Z,7.49
2018-04-19T05:14:18.657Z,7.42
2018-04-19T05:15:18.531Z,7.50
2018-04-19T05:16:18.403Z,7.47
2018-04-19T05:17:18.279Z,7.53
2018-04-19T05:18:18.152Z,7.58
2018-04-19T05:19:18.023Z,7.45
2018-04-19T05:20:17.947Z,7.49
2018-04-19T05:21:17.772Z,7.56
2018-04-19T05:22:17.645Z,7.45
2018-04-19T05:23:17.515Z,7.59
2018-04-19T05:24:17.389Z,7.45
2018-04-19T05:25:17.266Z,7.45
2018-04-19T05:26:17.153Z,7.49
2018-04-19T05:27:17.012Z,7.56
2018-04-19T05:28:16.887Z,7.77
2018-04-19T05:29:16.757Z,7.92
2018-04-19T05:30:16.635Z,8.07
2018-04-19T05:31:16.510Z,8.26
2018-04-19T05:32:16.380Z,8.37
2018-04-19T05:33:16.257Z,8.54
2018-04-19T05:34:16.129Z,8.69
2018-04-19T05:35:16.003Z,8.75
2018-04-19T05:36:15.880Z,8.84
2018-04-19T05:37:15.833Z,8.99
2018-04-19T05:38:15.624Z,9.20
2018-04-19T05:39:15.503Z,9.34
2018-04-19T05:40:15.372Z,9.46
2018-04-19T05:41:15.247Z,9.71
2018-04-19T05:42:15.122Z,9.85
2018-04-19T05:43:14.998Z,10.03
2018-04-19T05:44:14.871Z,10.24
2018-04-19T05:45:14.748Z,10.43
2018-04-19T05:46:14.624Z,10.46
2018-04-19T05:47:14.499Z,10.60
2018-04-19T05:48:14.373Z,10.63
2018-04-19T05:49:14.247Z,10.84
2018-04-19T05:50:14.123Z,11.06
2018-04-19T05:51:13.996Z,11.31
2018-04-19T05:52:13.874Z,11.28
2018-04-19T05:53:13.749Z,11.24
2018-04-19T05:54:13.628Z,11.20
2018-04-19T05:55:13.501Z,10.89
2018-04-19T05:56:13.377Z,10.89
2018-04-19T05:57:13.253Z,10.92
2018-04-19T05:58:13.133Z,11.02
2018-04-19T05:59:13.002Z,11.21
2018-04-19T06:00:12.880Z,11.24
2018-04-19T06:01:12.757Z,11.19
2018-04-19T06:02:12.632Z,11.21
2018-04-19T06:03:12.564Z,11.28
2018-04-19T06:04:12.382Z,11.47
2018-04-19T06:05:12.258Z,11.46
2018-04-19T06:06:12.136Z,11.49
2018-04-19T06:07:12.016Z,11.49
2018-04-19T06:08:11.891Z,11.47
2018-04-19T06:09:11.763Z,11.52
2018-04-19T06:10:11.641Z,11.54
2018-04-19T06:11:11.518Z,11.47
2018-04-19T06:12:11.392Z,11.39
2018-04-19T06:13:11.269Z,11.44
2018-04-19T06:14:11.147Z,11.43
2018-04-19T06:15:11.055Z,11.39
2018-04-19T06:16:10.898Z,11.70
2018-04-19T06:17:10.778Z,11.83
2018-04-19T06:18:10.652Z,11.89
2018-04-19T06:19:10.532Z,12.05
2018-04-19T06:20:10.406Z,12.08
2018-04-19T06:21:10.281Z,12.19
2018-04-19T06:22:10.162Z,12.34
2018-04-19T06:23:10.033Z,12.41
2018-04-19T06:24:09.910Z,12.31
2018-04-19T06:25:09.787Z,12.38
2018-04-19T06:26:09.696Z,12.21
2018-04-19T06:27:09.547Z,12.01
2018-04-19T06:28:09.420Z,11.65
2018-04-19T06:29:09.300Z,11.62
2018-04-19T06:30:09.174Z,11.54
2018-04-19T06:31:09.049Z,11.56
2018-04-19T06:32:08.928Z,11.70
2018-04-19T06:33:08.803Z,12.04
2018-04-19T06:34:08.680Z,12.26
2018-04-19T06:35:08.556Z,12.52
2018-04-19T06:36:08.460Z,12.69
2018-04-19T06:37:08.317Z,12.85
2018-04-19T06:38:08.189Z,12.84
2018-04-19T06:39:08.066Z,12.99
2018-04-19T06:40:07.944Z,12.95
2018-04-19T06:41:07.818Z,13.03
2018-04-19T06:42:07.699Z,13.14
2018-04-19T06:43:07.577Z,13.11
2018-04-19T06:44:07.450Z,13.06
2018-04-19T06:45:07.329Z,13.04
2018-04-19T06:46:07.206Z,13.03
2018-04-19T06:47:07.083Z,13.04
2018-04-19T06:48:06.960Z,13.21
2018-04-19T06:49:06.838Z,13.36
2018-04-19T06:50:06.712Z,13.41
2018-04-19T06:51:06.593Z,13.46
2018-04-19T06:52:06.470Z,13.41
2018-04-19T06:53:06.347Z,13.58
2018-04-19T06:54:06.223Z,13.58
2018-04-19T06:55:06.101Z,13.71
2018-04-19T06:56:05.980Z,13.84
2018-04-19T06:57:05.858Z,13.87
2018-04-19T06:58:05.738Z,13.83
2018-04-19T06:59:05.615Z,13.83
2018-04-19T07:00:05.491Z,13.94
2018-04-19T07:01:05.416Z,14.02
2018-04-19T07:02:05.250Z,13.98
2018-04-19T07:03:05.127Z,13.99
2018-04-19T07:04:05.001Z,13.99
2018-04-19T07:05:04.882Z,14.01
2018-04-19T07:06:04.760Z,13.95
2018-04-19T07:07:04.636Z,14.01
2018-04-19T07:08:04.516Z,14.20
2018-04-19T07:09:04.393Z,14.29
2018-04-19T07:10:04.275Z,14.42
2018-04-19T07:11:04.149Z,14.60
2018-04-19T07:12:04.030Z,14.67
2018-04-19T07:13:03.908Z,14.65
2018-04-19T07:14:03.784Z,14.71
2018-04-19T07:15:03.662Z,14.74
2018-04-19T07:16:03.540Z,14.78
2018-04-19T07:17:03.420Z,14.71
2018-04-19T07:18:03.300Z,14.75
2018-04-19T07:19:03.178Z,14.69
2018-04-19T07:20:03.059Z,14.69
2018-04-19T07:21:02.936Z,14.78
2018-04-19T07:22:02.814Z,14.84
2018-04-19T07:23:02.690Z,14.87
2018-04-19T07:24:02.570Z,14.99
2018-04-19T07:25:02.453Z,15.26
2018-04-19T07:26:02.333Z,15.31
2018-04-19T07:27:02.209Z,15.26
2018-04-19T07:28:02.087Z,15.23
2018-04-19T07:29:01.964Z,15.20
2018-04-19T07:30:01.850Z,15.21
2018-04-19T07:31:01.725Z,15.38
2018-04-19T07:32:01.605Z,15.43
2018-04-19T07:33:01.482Z,15.51
2018-04-19T07:34:01.361Z,15.45
2018-04-19T07:35:01.242Z,15.46
2018-04-19T07:36:01.119Z,15.61
2018-04-19T07:37:00.998Z,15.63
2018-04-19T07:38:00.879Z,15.75
2018-04-19T07:39:00.801Z,15.84
2018-04-19T07:40:00.634Z,15.84
2018-04-19T07:41:00.515Z,15.93
2018-04-19T07:42:00.390Z,16.03
2018-04-19T07:43:00.278Z,16.20
2018-04-19T07:44:00.163Z,16.37
2018-04-19T07:45:00.036Z,16.40
2018-04-19T07:45:59.911Z,16.53
2018-04-19T07:46:59.789Z,16.67
2018-04-19T07:47:59.672Z,16.52
2018-04-19T07:48:59.549Z,16.44
2018-04-19T07:49:59.430Z,16.49
2018-04-19T07:50:59.310Z,16.49
2018-04-19T07:51:59.187Z,16.52
2018-04-19T07:52:59.069Z,16.65
2018-04-19T07:53:58.970Z,16.56
2018-04-19T07:54:58.846Z,16.41
2018-04-19T07:55:58.710Z,16.45
2018-04-19T07:56:58.589Z,16.60
2018-04-19T07:57:58.492Z,16.45
2018-04-19T07:58:58.349Z,16.42
2018-04-19T07:59:58.231Z,16.52
2018-04-19T08:00:58.110Z,16.70
2018-04-19T08:01:57.988Z,16.56
2018-04-19T08:02:57.868Z,16.60
2018-04-19T08:03:57.751Z,16.49
2018-04-19T08:04:57.631Z,16.63
2018-04-19T08:05:57.518Z,16.83
2018-04-19T08:06:57.395Z,16.92
2018-04-19T08:07:57.358Z,17.13
2018-04-19T08:08:57.153Z,17.25
2018-04-19T08:09:57.037Z,17.40
2018-04-19T08:10:56.917Z,17.25
2018-04-19T08:11:56.795Z,17.33
2018-04-19T08:12:56.679Z,17.35
2018-04-19T08:13:56.559Z,17.25
2018-04-19T08:14:56.442Z,16.85
2018-04-19T08:15:56.336Z,16.86
2018-04-19T08:16:56.196Z,16.98
2018-04-19T08:17:56.083Z,17.10
2018-04-19T08:18:56.007Z,17.14
2018-04-19T08:19:55.857Z,17.30
2018-04-19T08:20:55.722Z,17.35
2018-04-19T08:21:55.603Z,17.38
2018-04-19T08:22:55.485Z,17.33
2018-04-19T08:23:55.519Z,17.14
2018-04-19T08:24:55.246Z,17.28
2018-04-19T08:25:55.129Z,17.54
2018-04-19T08:26:55.014Z,17.84
2018-04-19T08:27:54.915Z,17.59
2018-04-19T08:28:54.772Z,17.79
2018-04-19T08:29:54.654Z,17.73
2018-04-19T08:30:54.671Z,17.82
2018-04-19T08:31:54.414Z,17.95
2018-04-19T08:32:54.301Z,17.82
2018-04-19T08:33:54.177Z,17.82
2018-04-19T08:34:54.060Z,18.04
2018-04-19T08:35:53.941Z,18.13
2018-04-19T08:36:53.822Z,18.04
2018-04-19T08:37:53.702Z,18.03
2018-04-19T08:38:53.587Z,18.02
2018-04-19T08:39:53.467Z,18.09
2018-04-19T08:40:53.350Z,18.17
2018-04-19T08:41:53.342Z,18.27
2018-04-19T08:42:53.111Z,18.37
2018-04-19T08:43:52.992Z,18.36
2018-04-19T08:44:52.877Z,18.36
2018-04-19T08:45:52.759Z,18.24
2018-04-19T08:46:52.639Z,18.10
2018-04-19T08:47:52.523Z,18.04
2018-04-19T08:48:52.402Z,18.06
2018-04-19T08:49:52.285Z,18.18
2018-04-19T08:50:52.251Z,18.17
2018-04-19T08:51:52.050Z,18.17
2018-04-19T08:52:51.936Z,18.09
2018-04-19T08:53:51.812Z,18.27
2018-04-19T08:54:51.696Z,18.13
2018-04-19T08:55:51.575Z,18.33
2018-04-19T08:56:51.459Z,18.15
2018-04-19T08:57:51.338Z,17.95
2018-04-19T08:58:51.225Z,18.07
2018-04-19T08:59:51.104Z,18.29
2018-04-19T09:00:50.988Z,18.34
2018-04-19T09:01:50.868Z,18.33
2018-04-19T09:02:50.752Z,18.31
2018-04-19T09:03:50.630Z,18.50
2018-04-19T09:04:50.512Z,18.44
2018-04-19T09:05:50.395Z,18.65
2018-04-19T09:06:50.278Z,19.06
2018-04-19T09:07:50.157Z,19.05
2018-04-19T09:08:50.042Z,19.33
2018-04-19T09:09:49.927Z,19.31
2018-04-19T09:10:49.803Z,19.02
2018-04-19T09:11:49.688Z,18.43
2018-04-19T09:12:49.572Z,18.50
2018-04-19T09:13:49.453Z,18.65
2018-04-19T09:14:49.346Z,18.74
2018-04-19T09:15:49.215Z,18.98
2018-04-19T09:16:49.101Z,18.91
2018-04-19T09:17:49.001Z,19.05
2018-04-19T09:18:48.864Z,19.13
2018-04-19T09:19:48.744Z,19.50
2018-04-19T09:20:48.628Z,19.36
2018-04-19T09:21:48.598Z,19.54
2018-04-19T09:22:48.394Z,19.78
2018-04-19T09:23:48.318Z,19.39
2018-04-19T09:24:48.163Z,19.15
2018-04-19T09:25:48.041Z,19.20
2018-04-19T09:26:47.930Z,18.83
2018-04-19T09:27:47.805Z,18.59
2018-04-19T09:28:47.686Z,19.01
2018-04-19T09:29:47.570Z,18.97
2018-04-19T09:30:47.452Z,18.50
2018-04-19T09:31:47.435Z,18.72
2018-04-19T09:32:47.282Z,18.61
2018-04-19T09:33:47.102Z,18.58
2018-04-19T09:34:46.981Z,19.24
2018-04-19T09:35:46.864Z,19.50
2018-04-19T09:36:46.749Z,18.99
2018-04-19T09:37:46.630Z,18.65
2018-04-19T09:38:46.513Z,18.70
2018-04-19T09:39:46.429Z,18.98
2018-04-19T09:40:46.281Z,19.42
2018-04-19T09:41:46.163Z,19.33
2018-04-19T09:42:46.043Z,19.65
2018-04-19T09:43:45.978Z,20.03
2018-04-19T09:44:45.809Z,20.05
2018-04-19T09:45:45.691Z,19.76
2018-04-19T09:46:45.575Z,19.80
2018-04-19T09:47:45.511Z,19.90
2018-04-19T09:48:45.338Z,19.91
2018-04-19T09:49:45.221Z,19.97
2018-04-19T09:50:45.106Z,19.70
2018-04-19T09:51:45.017Z,19.68
2018-04-19T09:52:44.873Z,19.69
2018-04-19T09:53:44.782Z,19.80
2018-04-19T09:54:44.635Z,20.12
2018-04-19T09:55:44.514Z,20.21
2018-04-19T09:56:44.636Z,20.16
2018-04-19T09:57:44.283Z,20.15
2018-04-19T09:58:44.164Z,20.05
2018-04-19T09:59:44.047Z,20.02
2018-04-19T10:00:43.929Z,19.83
2018-04-19T10:01:43.824Z,19.90
2018-04-19T10:02:43.695Z,20.06
2018-04-19T10:03:43.581Z,20.20
2018-04-19T10:04:43.459Z,20.47
2018-04-19T10:05:43.346Z,20.25
2018-04-19T10:06:43.225Z,19.68
2018-04-19T10:07:43.110Z,19.87
2018-04-19T10:08:42.992Z,20.43
2018-04-19T10:09:42.892Z,20.51
2018-04-19T10:10:42.757Z,20.43
2018-04-19T10:11:42.640Z,20.62
2018-04-19T10:12:42.587Z,20.95
2018-04-19T10:13:42.408Z,20.83
2018-04-19T10:14:42.291Z,20.91
2018-04-19T10:15:42.177Z,20.84
2018-04-19T10:16:42.059Z,20.95
2018-04-19T10:17:41.947Z,20.87
2018-04-19T10:18:41.824Z,21.09
2018-04-19T10:19:41.710Z,20.89
2018-04-19T10:20:41.593Z,21.21
2018-04-19T10:21:41.478Z,21.39
2018-04-19T10:22:41.361Z,21.04
2018-04-19T10:23:41.245Z,20.98
2018-04-19T10:24:41.127Z,21.23
2018-04-19T10:25:41.016Z,21.20
2018-04-19T10:26:40.904Z,21.06
2018-04-19T10:27:40.786Z,21.38
2018-04-19T10:28:40.706Z,21.32
2018-04-19T10:29:40.551Z,21.42
2018-04-19T10:30:40.435Z,21.41
2018-04-19T10:31:40.318Z,21.48
2018-04-19T10:32:40.208Z,21.60
2018-04-19T10:33:40.094Z,21.90
2018-04-19T10:34:39.975Z,21.75
2018-04-19T10:35:39.861Z,21.71
2018-04-19T10:36:39.742Z,21.85
2018-04-19T10:37:39.628Z,21.85
2018-04-19T10:38:39.515Z,21.85
2018-04-19T10:39:39.411Z,21.83
2018-04-19T10:40:39.280Z,21.91
2018-04-19T10:41:39.165Z,22.20
2018-04-19T10:42:39.048Z,22.22
2018-04-19T10:43:38.933Z,21.92
2018-04-19T10:44:38.821Z,21.82
2018-04-19T10:45:38.705Z,21.91
2018-04-19T10:46:38.592Z,21.95
2018-04-19T10:47:38.492Z,21.99
2018-04-19T10:48:38.360Z,22.32
2018-04-19T10:49:38.253Z,22.54
2018-04-19T10:50:38.131Z,22.54
2018-04-19T10:51:38.017Z,22.56
2018-04-19T10:52:37.901Z,22.57
2018-04-19T10:53:37.785Z,22.32
2018-04-19T10:54:37.671Z,22.53
2018-04-19T10:55:37.560Z,22.83
2018-04-19T10:56:37.441Z,22.93
2018-04-19T10:57:37.332Z,23.29
2018-04-19T10:58:37.213Z,23.23
2018-04-19T10:59:37.101Z,22.93
2018-04-19T11:00:36.985Z,22.83
2018-04-19T11:01:36.870Z,23.05
2018-04-19T11:02:36.809Z,23.45
2018-04-19T11:03:36.647Z,23.64
2018-04-19T11:04:36.528Z,23.24
2018-04-19T11:05:36.411Z,23.14
2018-04-19T11:06:36.311Z,23.12
2018-04-19T11:07:36.184Z,23.14
2018-04-19T11:08:36.084Z,23.35
2018-04-19T11:09:35.956Z,23.60
2018-04-19T11:10:35.841Z,23.65
2018-04-19T11:11:35.729Z,23.45
2018-04-19T11:12:35.613Z,22.69
2018-04-19T11:13:35.503Z,23.11
2018-04-19T11:14:35.386Z,23.15
2018-04-19T11:15:35.283Z,22.67
2018-04-19T11:16:35.159Z,22.64
2018-04-19T11:17:35.047Z,22.71
2018-04-19T11:18:34.935Z,22.83
2018-04-19T11:19:34.821Z,23.45
2018-04-19T11:20:34.705Z,23.65
2018-04-19T11:21:34.592Z,23.55
2018-04-19T11:22:34.503Z,23.75
2018-04-19T11:23:34.364Z,22.74
2018-04-19T11:24:34.254Z,23.20
2018-04-19T11:25:34.139Z,23.52
2018-04-19T11:26:34.027Z,23.86
2018-04-19T11:27:33.916Z,23.95
2018-04-19T11:28:33.798Z,23.89
2018-04-19T11:29:33.685Z,24.05
2018-04-19T11:30:33.574Z,24.32
2018-04-19T11:31:33.458Z,24.49
2018-04-19T11:32:33.345Z,24.08
2018-04-19T11:33:33.235Z,24.14
2018-04-19T11:34:33.119Z,24.31
2018-04-19T11:35:33.007Z,24.34
2018-04-19T11:36:32.909Z,24.26
2018-04-19T11:37:32.779Z,24.59
2018-04-19T11:38:32.666Z,24.37
2018-04-19T11:39:32.554Z,23.87
2018-04-19T11:40:32.444Z,23.71
2018-04-19T11:41:32.330Z,24.00
2018-04-19T11:42:32.261Z,24.22
2018-04-19T11:43:32.101Z,23.97
2018-04-19T11:44:31.990Z,24.08
2018-04-19T11:45:31.877Z,24.54
2018-04-19T11:46:31.828Z,24.54
2018-04-19T11:47:31.652Z,24.20
2018-04-19T11:48:31.535Z,24.47
2018-04-19T11:49:31.424Z,24.32
2018-04-19T11:50:31.309Z,24.38
2018-04-19T11:51:31.197Z,24.17
2018-04-19T11:52:31.085Z,24.24
2018-04-19T11:53:30.975Z,24.32
2018-04-19T11:54:30.859Z,24.41
2018-04-19T11:55:30.751Z,24.52
2018-04-19T11:56:30.639Z,24.39
2018-04-19T11:57:30.525Z,24.41
2018-04-19T11:58:30.407Z,23.43
2018-04-19T11:59:30.297Z,22.77
2018-04-19T12:00:30.194Z,22.46
2018-04-19T12:01:30.076Z,22.77
2018-04-19T12:02:29.956Z,23.40
2018-04-19T12:03:29.844Z,24.07
2018-04-19T12:04:29.731Z,24.64
2018-04-19T12:05:29.622Z,24.85
2018-04-19T12:06:29.507Z,24.47
2018-04-19T12:07:29.393Z,24.73
2018-04-19T12:08:29.282Z,24.91
2018-04-19T12:09:29.167Z,24.98
2018-04-19T12:10:29.054Z,25.01
2018-04-19T12:11:28.944Z,25.10
2018-04-19T12:12:28.867Z,25.19
2018-04-19T12:13:28.734Z,25.25
2018-04-19T12:14:28.604Z,25.49
2018-04-19T12:15:28.495Z,24.95
2018-04-19T12:16:28.382Z,25.01
2018-04-19T12:17:28.269Z,25.52
2018-04-19T12:18:28.155Z,25.82
2018-04-19T12:19:28.041Z,25.80
2018-04-19T12:20:27.929Z,25.71
2018-04-19T12:21:27.816Z,26.08
2018-04-19T12:22:27.704Z,25.86
2018-04-19T12:23:27.604Z,26.42
2018-04-19T12:24:27.482Z,26.44
2018-04-19T12:25:27.371Z,26.31
2018-04-19T12:26:27.259Z,26.43
2018-04-19T12:27:27.144Z,26.54
2018-04-19T12:28:27.034Z,26.01
2018-04-19T12:29:26.923Z,26.15
2018-04-19T12:30:26.807Z,26.42
2018-04-19T12:31:26.697Z,26.36
2018-04-19T12:32:26.584Z,26.32
2018-04-19T12:33:26.472Z,26.32
2018-04-19T12:34:26.362Z,26.37
2018-04-19T12:35:26.253Z,26.36
2018-04-19T12:36:26.138Z,26.20
2018-04-19T12:37:26.059Z,25.77
2018-04-19T12:38:25.914Z,25.42
2018-04-19T12:39:25.809Z,25.59
2018-04-19T12:40:25.698Z,25.97
2018-04-19T12:41:25.577Z,25.52
2018-04-19T12:42:25.466Z,25.50
2018-04-19T12:43:25.372Z,25.90
2018-04-19T12:44:25.241Z,25.79
2018-04-19T12:45:25.131Z,25.59
2018-04-19T12:46:25.017Z,25.62
2018-04-19T12:47:24.911Z,25.62
2018-04-19T12:48:24.792Z,25.44
2018-04-19T12:49:24.683Z,25.94
2018-04-19T12:50:24.579Z,25.74
2018-04-19T12:51:24.457Z,25.82
2018-04-19T12:52:24.343Z,25.84
2018-04-19T12:53:24.230Z,26.09
2018-04-19T12:54:24.117Z,25.82
2018-04-19T12:55:24.031Z,26.06
2018-04-19T12:56:23.892Z,26.25
2018-04-19T12:57:23.783Z,26.74
2018-04-19T12:58:23.670Z,26.52
2018-04-19T12:59:23.553Z,26.58
2018-04-19T13:00:23.442Z,26.62
2018-04-19T13:01:23.337Z,26.39
2018-04-19T13:02:23.241Z,26.44